Time;durP1;ratioP1;P1;durP2;ratioP2;P2;SDS_P1;SDS_P2;PMS_P1;PMS_P2;Temp;Humidity;BMP_temperature;BMP_pressure;BME280_temperature;BME280_humidity;BME280_pressure;Samples;Min_cycle;Max_cycle;Signal;HPM_P1;HPM_P2
2021/12/13 00:01:13;;;;;;;;;;;;;;;;;;5050621;28;19982;-71
2021/12/13 00:03:39;;;;;;;;;;;;;;;;;;5048553;28;20552;-71
2021/12/13 00:06:05;;;;;;;;;;;;;;;;;;5049778;28;19913;-71
2021/12/13 00:08:32;;;;;;;;;;;;;;;;;;5065829;28;20003;-71
2021/12/13 00:10:59;;;;;;;;;;;;;;;;;;5049448;28;19982;-71
2021/12/13 00:13:25;;;;;;;;;;;;;;;;;;5048802;28;19909;-72
2021/12/13 00:15:51;;;;;;;;;;;;;;;;;;5045337;28;19944;-71
2021/12/13 00:18:17;;;;;;;;;;;;;;;;;;5051206;28;19909;-71
2021/12/13 00:20:44;;;;;;;;;;;;;;;;;;5052393;28;19928;-71
2021/12/13 00:23:10;;;;;;;;;;;;;;;;;;5054206;28;19928;-72
2021/12/13 00:25:36;;;;;;;;;;;;;;;;;;5051770;28;19913;-71
2021/12/13 00:28:02;;;;;;;;;;;;;;;;;;5053049;28;19908;-70
2021/12/13 00:30:28;;;;;;;;;;;;;;;;;;5053214;28;19923;-71
2021/12/13 00:32:56;;;;;;;;;;;;;;;;;;5053615;28;20293;-70
2021/12/13 00:35:21;;;;;;;;;;;;;;;;;;5052014;28;19984;-71
2021/12/13 00:37:47;;;;;;;;;;;;;;;;;;5052677;28;20029;-71
2021/12/13 00:40:13;;;;;;;;;;;;;;;;;;5052546;28;19923;-72
2021/12/13 00:42:39;;;;;;;;;;;;;;;;;;5052107;28;19987;-71
2021/12/13 00:45:06;;;;;;;;;;;;;;;;;;5052530;28;19912;-71
2021/12/13 00:47:32;;;;;;;;;;;;;;;;;;5053862;28;20388;-71
2021/12/13 00:49:58;;;;;;;;;;;;;;;;;;5052383;28;20481;-71
2021/12/13 00:52:24;;;;;;;;;;;;;;;;;;5053359;28;19967;-71
2021/12/13 00:54:50;;;;;;;;;;;;;;;;;;5066735;28;20842;-71
2021/12/13 00:57:16;;;;;;;;;;;;;;;;;;5053818;28;19915;-71
2021/12/13 00:59:41;;;;;;;;;;;;;;;;;;5051346;28;20501;-71
2021/12/13 01:02:07;;;;;;;;;;;;;;;;;;5053512;28;20020;-71
2021/12/13 01:04:33;;;;;;;;;;;;;;;;;;5053541;28;19909;-71
2021/12/13 01:06:59;;;;;;;;;;;;;;;;;;5050816;28;19920;-71
2021/12/13 01:09:25;;;;;;;;;;;;;;;;;;5069007;28;20007;-71
2021/12/13 01:11:51;;;;;;;;;;;;;;;;;;5052568;28;19917;-72
2021/12/13 01:14:17;;;;;;;;;;;;;;;;;;5051761;28;19967;-71
2021/12/13 01:16:52;;;;;;;;;;;;;;;;;;5051008;28;19913;-71
2021/12/13 01:21:54;;;;;;;;;;;;;;;;;;5051247;28;19970;-71
2021/12/13 01:25:16;;;;;;;;;;;;;;;;;;5050289;28;20057;-71
2021/12/13 01:27:11;;;;;;;;;;;;;;;;;;5050087;28;20352;-71
2021/12/13 01:29:37;;;;;;;;;;;;;;;;;;5051513;28;19916;-71
2021/12/13 01:32:03;;;;;;;;;;;;;;;;;;5050073;28;20516;-71
2021/12/13 01:34:28;;;;;;;;;;;;;;;;;;5049642;28;19923;-71
2021/12/13 01:37:07;;;;;;;;;;;;;;;;;;5050742;28;19912;-71
2021/12/13 01:39:33;;;;;;;;;;;;;;;;;;5051119;28;19913;-71
2021/12/13 01:41:59;;;;;;;;;;;;;;;;;;5050451;28;19923;-71
2021/12/13 01:44:25;;;;;;;;;;;;;;;;;;5051018;28;19913;-71
2021/12/13 01:46:51;;;;;;;;;;;;;;;;;;5051110;28;19913;-71
2021/12/13 01:49:19;;;;;;;;;;;;;;;;;;5050329;28;19960;-71
2021/12/13 01:51:45;;;;;;;;;;;;;;;;;;5049705;28;19912;-71
2021/12/13 01:54:12;;;;;;;;;;;;;;;;;;5049772;28;19913;-71
2021/12/13 01:56:47;;;;;;;;;;;;;;;;;;5049714;28;19913;-72
2021/12/13 01:59:27;;;;;;;;;;;;;;;;;;5049388;28;19939;-71
2021/12/13 02:01:53;;;;;;;;;;;;;;;;;;5047642;28;20024;-71
2021/12/13 02:04:19;;;;;;;;;;;;;;;;;;5046207;28;19995;-71
2021/12/13 02:06:45;;;;;;;;;;;;;;;;;;5055146;28;19913;-71
2021/12/13 02:09:11;;;;;;;;;;;;;;;;;;5051354;28;19955;-71
2021/12/13 02:11:37;;;;;;;;;;;;;;;;;;5049531;28;19917;-71
2021/12/13 02:14:12;;;;;;;;;;;;;;;;;;5051366;28;19913;-72
2021/12/13 02:16:58;;;;;;;;;;;;;;;;;;5050677;28;20241;-71
2021/12/13 02:19:24;;;;;;;;;;;;;;;;;;5049560;28;19920;-72
2021/12/13 02:21:50;;;;;;;;;;;;;;;;;;4987883;28;1741835;-71
2021/12/13 02:24:17;;;;;;;;;;;;;;;;;;5048826;28;19937;-72
2021/12/13 02:26:43;;;;;;;;;;;;;;;;;;5051482;28;19920;-72
2021/12/13 02:29:09;;;;;;;;;;;;;;;;;;5049008;28;19916;-71
2021/12/13 02:31:34;;;;;;;;;;;;;;;;;;5051146;28;19920;-71
2021/12/13 02:34:00;;;;;;;;;;;;;;;;;;5049889;28;20281;-71
2021/12/13 02:36:26;;;;;;;;;;;;;;;;;;5048363;28;19927;-71
2021/12/13 02:38:52;;;;;;;;;;;;;;;;;;5042948;28;20288;-71
2021/12/13 02:41:19;;;;;;;;;;;;;;;;;;5049937;28;19924;-71
2021/12/13 02:43:44;;;;;;;;;;;;;;;;;;5050237;28;19919;-72
2021/12/13 02:46:10;;;;;;;;;;;;;;;;;;5050399;28;19912;-71
2021/12/13 02:48:36;;;;;;;;;;;;;;;;;;5049797;28;19909;-72
2021/12/13 02:51:02;;;;;;;;;;;;;;;;;;5049685;28;20408;-71
2021/12/13 02:53:28;;;;;;;;;;;;;;;;;;5039912;28;19940;-72
2021/12/13 02:55:54;;;;;;;;;;;;;;;;;;5043296;28;19952;-71
2021/12/13 02:58:20;;;;;;;;;;;;;;;;;;5048582;28;19920;-71
2021/12/13 03:00:45;;;;;;;;;;;;;;;;;;5051317;28;19913;-71
2021/12/13 03:03:11;;;;;;;;;;;;;;;;;;5050334;28;19935;-71
2021/12/13 03:05:37;;;;;;;;;;;;;;;;;;5050019;28;20360;-71
2021/12/13 03:08:03;;;;;;;;;;;;;;;;;;5050532;28;19913;-71
2021/12/13 03:10:29;;;;;;;;;;;;;;;;;;5065587;28;19920;-70
2021/12/13 03:12:55;;;;;;;;;;;;;;;;;;5048710;28;19927;-72
2021/12/13 03:15:21;;;;;;;;;;;;;;;;;;5051172;28;19909;-72
2021/12/13 03:17:46;;;;;;;;;;;;;;;;;;5050355;28;20012;-71
2021/12/13 03:20:12;;;;;;;;;;;;;;;;;;5051049;28;19920;-71
2021/12/13 03:22:38;;;;;;;;;;;;;;;;;;5043718;28;20055;-71
2021/12/13 03:25:04;;;;;;;;;;;;;;;;;;5029315;28;19909;-71
2021/12/13 03:27:30;;;;;;;;;;;;;;;;;;5045980;28;20009;-71
2021/12/13 03:29:56;;;;;;;;;;;;;;;;;;5031167;28;20360;-72
2021/12/13 03:32:22;;;;;;;;;;;;;;;;;;5039751;28;19920;-71
2021/12/13 03:34:48;;;;;;;;;;;;;;;;;;5047763;28;22204;-71
2021/12/13 03:37:13;;;;;;;;;;;;;;;;;;5040172;28;19913;-71
2021/12/13 03:39:39;;;;;;;;;;;;;;;;;;5033022;28;19909;-71
2021/12/13 03:42:05;;;;;;;;;;;;;;;;;;5061011;28;19917;-71
2021/12/13 03:44:31;;;;;;;;;;;;;;;;;;5064588;28;19913;-71
2021/12/13 03:46:57;;;;;;;;;;;;;;;;;;5049668;28;19923;-71
2021/12/13 03:49:23;;;;;;;;;;;;;;;;;;5049114;28;19909;-71
2021/12/13 03:51:49;;;;;;;;;;;;;;;;;;5049461;28;19909;-71
2021/12/13 03:54:15;;;;;;;;;;;;;;;;;;5047805;28;19912;-71
2021/12/13 03:56:40;;;;;;;;;;;;;;;;;;5050521;28;19909;-71
2021/12/13 03:59:06;;;;;;;;;;;;;;;;;;5048805;28;19916;-72
2021/12/13 04:01:34;;;;;;;;;;;;;;;;;;5037019;28;19927;-71
2021/12/13 04:04:00;;;;;;;;;;;;;;;;;;5043988;28;19920;-71
2021/12/13 04:06:26;;;;;;;;;;;;;;;;;;5050524;28;19909;-72
2021/12/13 04:08:52;;;;;;;;;;;;;;;;;;5050182;28;19919;-71
2021/12/13 04:11:17;;;;;;;;;;;;;;;;;;5065813;28;19913;-72
2021/12/13 04:13:43;;;;;;;;;;;;;;;;;;5038273;28;20008;-71
2021/12/13 04:16:16;;;;;;;;;;;;;;;;;;5029342;28;19909;-71
2021/12/13 04:21:20;;;;;;;;;;;;;;;;;;5030139;28;19971;-70
2021/12/13 04:23:46;;;;;;;;;;;;;;;;;;5040760;28;19915;-72
2021/12/13 04:26:12;;;;;;;;;;;;;;;;;;5048825;28;19916;-71
2021/12/13 04:28:38;;;;;;;;;;;;;;;;;;5049475;28;19917;-71
2021/12/13 04:31:04;;;;;;;;;;;;;;;;;;5049005;28;19916;-71
2021/12/13 04:33:30;;;;;;;;;;;;;;;;;;5048291;28;19975;-71
2021/12/13 04:35:55;;;;;;;;;;;;;;;;;;5049890;28;19912;-71
2021/12/13 04:38:21;;;;;;;;;;;;;;;;;;5048588;28;19912;-72
2021/12/13 04:40:47;;;;;;;;;;;;;;;;;;5049840;28;19917;-72
2021/12/13 04:43:13;;;;;;;;;;;;;;;;;;5049304;28;19912;-71
2021/12/13 04:45:39;;;;;;;;;;;;;;;;;;5049587;28;19959;-71
2021/12/13 04:48:05;;;;;;;;;;;;;;;;;;5065382;28;19916;-71
2021/12/13 04:50:31;;;;;;;;;;;;;;;;;;5065302;28;19913;-71
2021/12/13 04:52:57;;;;;;;;;;;;;;;;;;5050039;28;20051;-73
2021/12/13 04:55:22;;;;;;;;;;;;;;;;;;5047919;28;19909;-72
2021/12/13 04:57:48;;;;;;;;;;;;;;;;;;5048398;28;20029;-72
2021/12/13 05:00:14;;;;;;;;;;;;;;;;;;5049676;28;19952;-71
2021/12/13 05:02:40;;;;;;;;;;;;;;;;;;5049830;28;20277;-71
2021/12/13 05:05:06;;;;;;;;;;;;;;;;;;5051747;28;20007;-72
2021/12/13 05:07:32;;;;;;;;;;;;;;;;;;5053195;28;19913;-71
2021/12/13 05:09:58;;;;;;;;;;;;;;;;;;5051789;28;20012;-72
2021/12/13 05:12:28;;;;;;;;;;;;;;;;;;5048878;28;20273;-71
2021/12/13 05:14:55;;;;;;;;;;;;;;;;;;5051147;28;19959;-71
2021/12/13 05:17:21;;;;;;;;;;;;;;;;;;5053241;28;19947;-71
2021/12/13 05:19:47;;;;;;;;;;;;;;;;;;5052867;28;19955;-71
2021/12/13 05:22:13;;;;;;;;;;;;;;;;;;5052914;28;20544;-72
2021/12/13 05:24:39;;;;;;;;;;;;;;;;;;5050587;28;20007;-71
2021/12/13 05:27:04;;;;;;;;;;;;;;;;;;5052933;28;19909;-71
2021/12/13 05:29:30;;;;;;;;;;;;;;;;;;5052754;28;20320;-71
2021/12/13 05:31:56;;;;;;;;;;;;;;;;;;5053200;28;19939;-70
2021/12/13 05:34:22;;;;;;;;;;;;;;;;;;5052422;28;20555;-70
2021/12/13 05:36:48;;;;;;;;;;;;;;;;;;5052421;28;19963;-71
2021/12/13 05:39:14;;;;;;;;;;;;;;;;;;5050542;28;20036;-71
2021/12/13 05:41:40;;;;;;;;;;;;;;;;;;5052500;28;20501;-71
2021/12/13 05:44:05;;;;;;;;;;;;;;;;;;5051185;28;19909;-71
2021/12/13 05:46:31;;;;;;;;;;;;;;;;;;5068096;28;19913;-71
2021/12/13 05:49:00;;;;;;;;;;;;;;;;;;5052125;28;20300;-71
2021/12/13 05:51:26;;;;;;;;;;;;;;;;;;5052889;28;19996;-71
2021/12/13 05:53:52;;;;;;;;;;;;;;;;;;5050886;28;20032;-71
2021/12/13 05:56:18;;;;;;;;;;;;;;;;;;5048186;28;20025;-72
2021/12/13 05:58:44;;;;;;;;;;;;;;;;;;5033167;28;19909;-72
2021/12/13 06:01:12;;;;;;;;;;;;;;;;;;5049349;28;20020;-71
2021/12/13 06:03:38;;;;;;;;;;;;;;;;;;5051275;28;19936;-71
2021/12/13 06:06:03;;;;;;;;;;;;;;;;;;5050705;28;19909;-71
2021/12/13 06:08:29;;;;;;;;;;;;;;;;;;5052310;28;19977;-71
2021/12/13 06:10:58;;;;;;;;;;;;;;;;;;5050298;28;20598;-71
2021/12/13 06:13:27;;;;;;;;;;;;;;;;;;5052123;28;19955;-71
2021/12/13 06:15:53;;;;;;;;;;;;;;;;;;5050365;28;19966;-71
2021/12/13 06:18:19;;;;;;;;;;;;;;;;;;5051078;28;19917;-70
2021/12/13 06:20:45;;;;;;;;;;;;;;;;;;5050708;28;19927;-71
2021/12/13 06:23:10;;;;;;;;;;;;;;;;;;5050566;28;19955;-71
2021/12/13 06:25:36;;;;;;;;;;;;;;;;;;5040198;28;19936;-71
2021/12/13 06:28:02;;;;;;;;;;;;;;;;;;5048907;28;19993;-71
2021/12/13 06:30:28;;;;;;;;;;;;;;;;;;5050029;28;19917;-71
2021/12/13 06:32:54;;;;;;;;;;;;;;;;;;5067490;28;19909;-71
2021/12/13 06:35:20;;;;;;;;;;;;;;;;;;5051309;28;19916;-72
2021/12/13 06:37:47;;;;;;;;;;;;;;;;;;5050727;28;19912;-71
2021/12/13 06:40:13;;;;;;;;;;;;;;;;;;5050935;28;20425;-71
2021/12/13 06:42:39;;;;;;;;;;;;;;;;;;5051692;28;19920;-71
2021/12/13 06:45:05;;;;;;;;;;;;;;;;;;5050005;28;19979;-72
2021/12/13 06:47:31;;;;;;;;;;;;;;;;;;5051622;28;19916;-72
2021/12/13 06:49:57;;;;;;;;;;;;;;;;;;5051160;28;20295;-71
2021/12/13 06:52:23;;;;;;;;;;;;;;;;;;5067002;28;19963;-71
2021/12/13 06:54:48;;;;;;;;;;;;;;;;;;5049457;28;19913;-70
2021/12/13 06:57:14;;;;;;;;;;;;;;;;;;5050852;28;19970;-71
2021/12/13 06:59:40;;;;;;;;;;;;;;;;;;5051512;28;19924;-72
2021/12/13 07:02:06;;;;;;;;;;;;;;;;;;5050403;28;20356;-71
2021/12/13 07:04:32;;;;;;;;;;;;;;;;;;5049905;28;19946;-71
2021/12/13 07:06:58;;;;;;;;;;;;;;;;;;5035903;28;20707;-71
2021/12/13 07:09:24;;;;;;;;;;;;;;;;;;5046659;28;19987;-71
2021/12/13 07:11:50;;;;;;;;;;;;;;;;;;5047602;28;19996;-71
2021/12/13 07:14:15;;;;;;;;;;;;;;;;;;5050938;28;19913;-71
2021/12/13 07:16:41;;;;;;;;;;;;;;;;;;5049272;28;19921;-71
2021/12/13 07:19:07;;;;;;;;;;;;;;;;;;5050328;28;19982;-71
2021/12/13 07:21:33;;;;;;;;;;;;;;;;;;5048684;28;19920;-71
2021/12/13 07:24:03;;;;;;;;;;;;;;;;;;5049695;28;19953;-71
2021/12/13 07:26:29;;;;;;;;;;;;;;;;;;5065455;28;19921;-71
2021/12/13 07:28:55;;;;;;;;;;;;;;;;;;5051018;28;19916;-71
2021/12/13 07:31:21;;;;;;;;;;;;;;;;;;5045393;28;19917;-71
2021/12/13 07:33:47;;;;;;;;;;;;;;;;;;5049164;28;19947;-71
2021/12/13 07:36:13;;;;;;;;;;;;;;;;;;5050005;28;19913;-71
2021/12/13 07:38:39;;;;;;;;;;;;;;;;;;5050950;28;20399;-71
2021/12/13 07:41:04;;;;;;;;;;;;;;;;;;5047794;28;19924;-71
2021/12/13 07:43:31;;;;;;;;;;;;;;;;;;5030373;28;19909;-71
2021/12/13 07:45:56;;;;;;;;;;;;;;;;;;5032228;28;19916;-72
2021/12/13 07:48:22;;;;;;;;;;;;;;;;;;5049243;28;20276;-72
2021/12/13 07:50:48;;;;;;;;;;;;;;;;;;5049786;28;19921;-72
2021/12/13 07:53:14;;;;;;;;;;;;;;;;;;5050433;28;20424;-71
2021/12/13 07:55:40;;;;;;;;;;;;;;;;;;5048521;28;19909;-71
2021/12/13 07:58:06;;;;;;;;;;;;;;;;;;5048897;28;19913;-71
2021/12/13 08:00:32;;;;;;;;;;;;;;;;;;5046448;28;20541;-71
2021/12/13 08:02:58;;;;;;;;;;;;;;;;;;5047815;28;19956;-69
2021/12/13 08:05:24;;;;;;;;;;;;;;;;;;5049558;28;20288;-69
2021/12/13 08:07:50;;;;;;;;;;;;;;;;;;5044356;28;19913;-70
2021/12/13 08:10:16;;;;;;;;;;;;;;;;;;5037591;28;19913;-69
2021/12/13 08:12:42;;;;;;;;;;;;;;;;;;5044387;28;19958;-70
2021/12/13 08:15:07;;;;;;;;;;;;;;;;;;5042818;28;20392;-69
2021/12/13 08:17:33;;;;;;;;;;;;;;;;;;5042656;28;19944;-69
2021/12/13 08:19:59;;;;;;;;;;;;;;;;;;5059907;28;20510;-69
2021/12/13 08:22:29;;;;;;;;;;;;;;;;;;5045030;28;20022;-69
2021/12/13 08:24:55;;;;;;;;;;;;;;;;;;5047720;28;19966;-70
2021/12/13 08:27:21;;;;;;;;;;;;;;;;;;5049453;28;19916;-70
2021/12/13 08:29:47;;;;;;;;;;;;;;;;;;5049598;28;19955;-69
2021/12/13 08:32:13;;;;;;;;;;;;;;;;;;5049248;28;19913;-69
2021/12/13 08:34:38;;;;;;;;;;;;;;;;;;5047087;28;20266;-70
2021/12/13 08:37:04;;;;;;;;;;;;;;;;;;5042914;28;19966;-70
2021/12/13 08:39:30;;;;;;;;;;;;;;;;;;5046387;28;19920;-69
2021/12/13 08:41:56;;;;;;;;;;;;;;;;;;5047602;28;19947;-69
2021/12/13 08:44:22;;;;;;;;;;;;;;;;;;5048848;28;19913;-69
2021/12/13 08:46:48;;;;;;;;;;;;;;;;;;5050551;28;19923;-69
2021/12/13 08:49:14;;;;;;;;;;;;;;;;;;5045918;28;20468;-69
2021/12/13 08:51:39;;;;;;;;;;;;;;;;;;5043656;28;19913;-69
2021/12/13 08:54:05;;;;;;;;;;;;;;;;;;5046827;28;19956;-69
2021/12/13 08:56:31;;;;;;;;;;;;;;;;;;5045408;28;19924;-69
2021/12/13 08:58:59;;;;;;;;;;;;;;;;;;5047945;28;19916;-69
2021/12/13 09:01:26;;;;;;;;;;;;;;;;;;5067471;28;19924;-69
2021/12/13 09:03:52;;;;;;;;;;;;;;;;;;5052626;28;19912;-70
2021/12/13 09:06:21;;;;;;;;;;;;;;;;;;5052043;28;20004;-69
2021/12/13 09:08:47;;;;;;;;;;;;;;;;;;5051744;28;20411;-70
2021/12/13 09:11:13;;;;;;;;;;;;;;;;;;5049868;28;19913;-70
2021/12/13 09:13:39;;;;;;;;;;;;;;;;;;5051121;28;19938;-69
2021/12/13 09:16:05;;;;;;;;;;;;;;;;;;5049045;28;19917;-70
2021/12/13 09:18:31;;;;;;;;;;;;;;;;;;5046622;28;20693;-69
2021/12/13 09:21:00;;;;;;;;;;;;;;;;;;5050213;28;19944;-70
2021/12/13 09:23:26;;;;;;;;;;;;;;;;;;5050212;28;20006;-69
2021/12/13 09:25:52;;;;;;;;;;;;;;;;;;5048809;28;20722;-70
2021/12/13 09:28:17;;;;;;;;;;;;;;;;;;5041518;28;19982;-70
2021/12/13 09:30:49;;;;;;;;;;;;;;;;;;5050067;28;19913;-70
2021/12/13 09:33:15;;;;;;;;;;;;;;;;;;5052227;28;20353;-69
2021/12/13 09:35:41;;;;;;;;;;;;;;;;;;5050395;28;19919;-71
2021/12/13 09:38:07;;;;;;;;;;;;;;;;;;5049677;28;19913;-71
2021/12/13 09:40:33;;;;;;;;;;;;;;;;;;5050119;28;19917;-70
2021/12/13 09:42:58;;;;;;;;;;;;;;;;;;5040421;28;19924;-70
2021/12/13 09:45:26;;;;;;;;;;;;;;;;;;5044878;28;19924;-72
2021/12/13 09:47:51;;;;;;;;;;;;;;;;;;5050702;28;19995;-71
2021/12/13 09:50:17;;;;;;;;;;;;;;;;;;5048038;28;20011;-72
2021/12/13 09:52:43;;;;;;;;;;;;;;;;;;5051444;28;20288;-72
2021/12/13 09:55:09;;;;;;;;;;;;;;;;;;5049036;28;19991;-72
2021/12/13 09:57:35;;;;;;;;;;;;;;;;;;5052435;28;19921;-71
2021/12/13 10:00:01;;;;;;;;;;;;;;;;;;5050913;28;20004;-71
2021/12/13 10:02:27;;;;;;;;;;;;;;;;;;5046061;28;19959;-71
2021/12/13 10:04:52;;;;;;;;;;;;;;;;;;5048440;28;19912;-72
2021/12/13 10:07:18;;;;;;;;;;;;;;;;;;5049468;28;19920;-71
2021/12/13 10:09:44;;;;;;;;;;;;;;;;;;5049144;28;19944;-71
2021/12/13 10:12:10;;;;;;;;;;;;;;;;;;5043008;28;19987;-71
2021/12/13 10:14:36;;;;;;;;;;;;;;;;;;5047083;28;19949;-72
2021/12/13 10:17:02;;;;;;;;;;;;;;;;;;5043681;28;20320;-72
2021/12/13 10:19:28;;;;;;;;;;;;;;;;;;5045376;28;19924;-72
2021/12/13 10:21:53;;;;;;;;;;;;;;;;;;5046465;28;19920;-72
2021/12/13 10:24:19;;;;;;;;;;;;;;;;;;5045501;28;19913;-72
2021/12/13 10:26:47;;;;;;;;;;;;;;;;;;5045675;28;20458;-72
2021/12/13 10:29:12;;;;;;;;;;;;;;;;;;5062152;28;19966;-72
2021/12/13 10:31:38;;;;;;;;;;;;;;;;;;5049119;28;19916;-72
2021/12/13 10:34:04;;;;;;;;;;;;;;;;;;5045991;28;19917;-72
2021/12/13 10:36:30;;;;;;;;;;;;;;;;;;5065903;28;19916;-72
2021/12/13 10:38:56;;;;;;;;;;;;;;;;;;5060520;28;20681;-73
2021/12/13 10:41:22;;;;;;;;;;;;;;;;;;5044782;28;19920;-72
2021/12/13 10:43:48;;;;;;;;;;;;;;;;;;5055505;28;19975;-72
2021/12/13 10:46:14;;;;;;;;;;;;;;;;;;5063209;28;19963;-71
2021/12/13 10:48:44;;;;;;;;;;;;;;;;;;5062576;28;20597;-71
2021/12/13 10:51:10;;;;;;;;;;;;;;;;;;5043220;28;19975;-71
2021/12/13 10:53:36;;;;;;;;;;;;;;;;;;5047437;28;19917;-73
2021/12/13 10:56:02;;;;;;;;;;;;;;;;;;5047422;28;19913;-72
2021/12/13 10:58:29;;;;;;;;;;;;;;;;;;5050017;28;20359;-72
2021/12/13 11:00:54;;;;;;;;;;;;;;;;;;5064484;28;20000;-71
2021/12/13 11:03:22;;;;;;;;;;;;;;;;;;5050537;28;20015;-72
2021/12/13 11:05:47;;;;;;;;;;;;;;;;;;5063513;28;19927;-73
2021/12/13 11:08:13;;;;;;;;;;;;;;;;;;5051002;28;19909;-72
2021/12/13 11:10:39;;;;;;;;;;;;;;;;;;5051193;28;19909;-72
2021/12/13 11:13:05;;;;;;;;;;;;;;;;;;5051213;28;19949;-72
2021/12/13 11:15:31;;;;;;;;;;;;;;;;;;5048802;28;19917;-71
2021/12/13 11:17:57;;;;;;;;;;;;;;;;;;5048855;28;19916;-72
2021/12/13 11:20:23;;;;;;;;;;;;;;;;;;5049314;28;19976;-72
2021/12/13 11:22:49;;;;;;;;;;;;;;;;;;5049388;28;19936;-71
2021/12/13 11:25:15;;;;;;;;;;;;;;;;;;5046272;28;20369;-70
2021/12/13 11:27:41;;;;;;;;;;;;;;;;;;5040187;28;20024;-70
2021/12/13 11:30:07;;;;;;;;;;;;;;;;;;5047537;28;19912;-70
2021/12/13 11:32:33;;;;;;;;;;;;;;;;;;5044181;28;20420;-70
2021/12/13 11:34:59;;;;;;;;;;;;;;;;;;5042568;28;19939;-70
2021/12/13 11:37:25;;;;;;;;;;;;;;;;;;5044218;28;19912;-71
2021/12/13 11:39:51;;;;;;;;;;;;;;;;;;5041718;28;19937;-70
2021/12/13 11:42:17;;;;;;;;;;;;;;;;;;5048186;28;19913;-70
2021/12/13 11:44:43;;;;;;;;;;;;;;;;;;5049986;28;20435;-70
2021/12/13 11:47:09;;;;;;;;;;;;;;;;;;5046658;28;19908;-70
2021/12/13 11:49:35;;;;;;;;;;;;;;;;;;5049980;28;20391;-70
2021/12/13 11:52:01;;;;;;;;;;;;;;;;;;5049689;28;20011;-70
2021/12/13 11:54:27;;;;;;;;;;;;;;;;;;5048101;28;19908;-74
2021/12/13 11:56:53;;;;;;;;;;;;;;;;;;5049818;28;20277;-74
2021/12/13 11:59:19;;;;;;;;;;;;;;;;;;5050038;28;20379;-73
2021/12/13 12:01:47;;;;;;;;;;;;;;;;;;5048592;28;19920;-73
2021/12/13 12:04:13;;;;;;;;;;;;;;;;;;5049762;28;19908;-74
2021/12/13 12:06:39;;;;;;;;;;;;;;;;;;5049790;28;19924;-73
2021/12/13 12:09:04;;;;;;;;;;;;;;;;;;5049438;28;19909;-74
2021/12/13 12:11:30;;;;;;;;;;;;;;;;;;5049434;28;20467;-74
2021/12/13 12:14:03;;;;;;;;;;;;;;;;;;5068183;28;19912;-73
2021/12/13 12:16:29;;;;;;;;;;;;;;;;;;5053962;28;19921;-74
2021/12/13 12:18:56;;;;;;;;;;;;;;;;;;5053584;28;19908;-73
2021/12/13 12:21:22;;;;;;;;;;;;;;;;;;5053267;28;19974;-74
2021/12/13 12:23:49;;;;;;;;;;;;;;;;;;5050275;28;19913;-75
2021/12/13 12:26:15;;;;;;;;;;;;;;;;;;5049219;28;19920;-73
2021/12/13 12:28:41;;;;;;;;;;;;;;;;;;5052728;28;19909;-73
2021/12/13 12:31:07;;;;;;;;;;;;;;;;;;5052693;28;19919;-73
2021/12/13 12:33:32;;;;;;;;;;;;;;;;;;5052756;28;19913;-74
2021/12/13 12:35:58;;;;;;;;;;;;;;;;;;5052259;28;19917;-74
2021/12/13 12:38:24;;;;;;;;;;;;;;;;;;5047199;28;19919;-74
2021/12/13 12:40:50;;;;;;;;;;;;;;;;;;5051039;28;19921;-73
2021/12/13 12:43:16;;;;;;;;;;;;;;;;;;5051034;28;19913;-73
2021/12/13 12:45:42;;;;;;;;;;;;;;;;;;5052067;28;19909;-74
2021/12/13 12:48:09;;;;;;;;;;;;;;;;;;5053614;28;19909;-74
2021/12/13 12:50:35;;;;;;;;;;;;;;;;;;5052111;28;19921;-73
2021/12/13 12:53:01;;;;;;;;;;;;;;;;;;5053450;28;19999;-74
2021/12/13 12:55:27;;;;;;;;;;;;;;;;;;5048615;28;19920;-74
2021/12/13 12:57:53;;;;;;;;;;;;;;;;;;5052342;28;19917;-73
2021/12/13 13:00:19;;;;;;;;;;;;;;;;;;5051203;28;19916;-74
2021/12/13 13:02:45;;;;;;;;;;;;;;;;;;5052685;28;19969;-73
2021/12/13 13:05:12;;;;;;;;;;;;;;;;;;5051485;28;19999;-74
2021/12/13 13:07:38;;;;;;;;;;;;;;;;;;5051427;28;19912;-74
2021/12/13 13:10:03;;;;;;;;;;;;;;;;;;5051033;28;19975;-74
2021/12/13 13:12:30;;;;;;;;;;;;;;;;;;5050596;28;19917;-76
2021/12/13 13:14:56;;;;;;;;;;;;;;;;;;5052521;28;20250;-73
2021/12/13 13:17:22;;;;;;;;;;;;;;;;;;5048722;28;19920;-73
2021/12/13 13:19:48;;;;;;;;;;;;;;;;;;5052362;28;20557;-74
2021/12/13 13:22:13;;;;;;;;;;;;;;;;;;5052654;28;19968;-73
2021/12/13 13:24:39;;;;;;;;;;;;;;;;;;5050121;28;20000;-72
2021/12/13 13:27:05;;;;;;;;;;;;;;;;;;5049397;28;19919;-75
2021/12/13 13:29:31;;;;;;;;;;;;;;;;;;5048484;28;19952;-74
2021/12/13 13:31:59;;;;;;;;;;;;;;;;;;5050329;28;19913;-74
2021/12/13 13:34:24;;;;;;;;;;;;;;;;;;5052500;28;19999;-75
2021/12/13 13:36:50;;;;;;;;;;;;;;;;;;5052497;28;20321;-74
2021/12/13 13:39:16;;;;;;;;;;;;;;;;;;5051259;28;20007;-74
2021/12/13 13:41:42;;;;;;;;;;;;;;;;;;5052480;28;19924;-73
2021/12/13 13:44:08;;;;;;;;;;;;;;;;;;5052410;28;19954;-74
2021/12/13 13:46:34;;;;;;;;;;;;;;;;;;5051281;28;19908;-74
2021/12/13 13:49:02;;;;;;;;;;;;;;;;;;5051270;28;19909;-74
2021/12/13 13:51:28;;;;;;;;;;;;;;;;;;5051314;28;19909;-74
2021/12/13 13:53:55;;;;;;;;;;;;;;;;;;5050679;28;20354;-74
2021/12/13 13:56:21;;;;;;;;;;;;;;;;;;5051186;28;19908;-74
2021/12/13 13:58:47;;;;;;;;;;;;;;;;;;5051403;28;20304;-75
2021/12/13 14:01:12;;;;;;;;;;;;;;;;;;5052210;28;19916;-74
2021/12/13 14:03:38;;;;;;;;;;;;;;;;;;5050784;28;19912;-74
2021/12/13 14:06:04;;;;;;;;;;;;;;;;;;5051042;28;19905;-74
2021/12/13 14:08:30;;;;;;;;;;;;;;;;;;5052285;28;19913;-74
2021/12/13 14:10:57;;;;;;;;;;;;;;;;;;5047567;28;19916;-74
2021/12/13 14:13:23;;;;;;;;;;;;;;;;;;5047708;28;19917;-74
2021/12/13 14:15:51;;;;;;;;;;;;;;;;;;5047790;28;19963;-75
2021/12/13 14:18:17;;;;;;;;;;;;;;;;;;5047588;28;19920;-75
2021/12/13 14:20:43;;;;;;;;;;;;;;;;;;5031763;28;19928;-75
2021/12/13 14:23:09;;;;;;;;;;;;;;;;;;5032712;28;19959;-74
2021/12/13 14:25:35;;;;;;;;;;;;;;;;;;5030040;28;19964;-75
2021/12/13 14:28:01;;;;;;;;;;;;;;;;;;5047729;28;19992;-74
2021/12/13 14:30:27;;;;;;;;;;;;;;;;;;5032110;28;19909;-74
2021/12/13 14:32:53;;;;;;;;;;;;;;;;;;5047265;28;19909;-74
2021/12/13 14:35:19;;;;;;;;;;;;;;;;;;5031852;28;19935;-74
2021/12/13 14:37:44;;;;;;;;;;;;;;;;;;5046229;28;20000;-74
2021/12/13 14:40:10;;;;;;;;;;;;;;;;;;5031891;28;19956;-75
2021/12/13 14:42:36;;;;;;;;;;;;;;;;;;5047203;28;20337;-75
2021/12/13 14:45:02;;;;;;;;;;;;;;;;;;5046861;28;19909;-74
2021/12/13 14:47:28;;;;;;;;;;;;;;;;;;5046938;28;19909;-74
2021/12/13 14:49:54;;;;;;;;;;;;;;;;;;5031694;28;19916;-75
2021/12/13 14:52:20;;;;;;;;;;;;;;;;;;5040848;28;20011;-74
2021/12/13 14:54:46;;;;;;;;;;;;;;;;;;5049547;28;19909;-74
2021/12/13 14:57:11;;;;;;;;;;;;;;;;;;5051298;28;19916;-74
2021/12/13 14:59:37;;;;;;;;;;;;;;;;;;5050185;28;20007;-74
2021/12/13 15:02:03;;;;;;;;;;;;;;;;;;5051228;28;19916;-74
2021/12/13 15:04:29;;;;;;;;;;;;;;;;;;5051138;28;20408;-75
2021/12/13 15:06:55;;;;;;;;;;;;;;;;;;5049865;28;19909;-74
2021/12/13 15:09:21;;;;;;;;;;;;;;;;;;5049667;28;19932;-74
2021/12/13 15:11:47;;;;;;;;;;;;;;;;;;5049708;28;20484;-74
2021/12/13 15:14:12;;;;;;;;;;;;;;;;;;5050974;28;19963;-74
2021/12/13 15:16:38;;;;;;;;;;;;;;;;;;5050801;28;20452;-75
2021/12/13 15:19:05;;;;;;;;;;;;;;;;;;5051039;28;19912;-75
2021/12/13 15:21:31;;;;;;;;;;;;;;;;;;5050431;28;19924;-76
2021/12/13 15:23:57;;;;;;;;;;;;;;;;;;5048350;28;19978;-74
2021/12/13 15:26:23;;;;;;;;;;;;;;;;;;5046979;28;20011;-76
2021/12/13 15:28:49;;;;;;;;;;;;;;;;;;5048940;28;19924;-74
2021/12/13 15:31:15;;;;;;;;;;;;;;;;;;5059866;28;19913;-73
2021/12/13 15:33:42;;;;;;;;;;;;;;;;;;5049400;28;19913;-74
2021/12/13 15:36:10;;;;;;;;;;;;;;;;;;5048716;28;20625;-74
2021/12/13 15:38:36;;;;;;;;;;;;;;;;;;5048198;28;19913;-73
2021/12/13 15:41:02;;;;;;;;;;;;;;;;;;5049530;28;19920;-74
2021/12/13 15:43:32;;;;;;;;;;;;;;;;;;5049048;28;19921;-75
2021/12/13 15:45:57;;;;;;;;;;;;;;;;;;5050593;28;19957;-75
2021/12/13 15:51:08;;;;;;;;;;;;;;;;;;5050614;28;19959;-74
2021/12/13 15:53:34;;;;;;;;;;;;;;;;;;5049868;28;19916;-74
2021/12/13 15:56:00;;;;;;;;;;;;;;;;;;5048149;28;19915;-74
2021/12/13 15:58:26;;;;;;;;;;;;;;;;;;5036526;28;20046;-74
2021/12/13 16:00:52;;;;;;;;;;;;;;;;;;5048802;28;20011;-75
2021/12/13 16:03:17;;;;;;;;;;;;;;;;;;5050187;28;20528;-74
2021/12/13 16:05:43;;;;;;;;;;;;;;;;;;5049913;28;19913;-74
2021/12/13 16:08:09;;;;;;;;;;;;;;;;;;5050182;28;19909;-75
2021/12/13 16:10:35;;;;;;;;;;;;;;;;;;5047806;28;20007;-74
2021/12/13 16:13:01;;;;;;;;;;;;;;;;;;5042123;28;19912;-75
2021/12/13 16:15:27;;;;;;;;;;;;;;;;;;5043516;28;20003;-74
2021/12/13 16:17:53;;;;;;;;;;;;;;;;;;5059634;28;19912;-74
2021/12/13 16:20:20;;;;;;;;;;;;;;;;;;5045992;28;19923;-74
2021/12/13 16:22:46;;;;;;;;;;;;;;;;;;5044301;28;19960;-74
2021/12/13 16:25:12;;;;;;;;;;;;;;;;;;5044487;28;19952;-74
2021/12/13 16:27:37;;;;;;;;;;;;;;;;;;5043884;28;19913;-74
2021/12/13 16:30:03;;;;;;;;;;;;;;;;;;5062762;28;19944;-74
2021/12/13 16:32:29;;;;;;;;;;;;;;;;;;5044137;28;19913;-75
2021/12/13 16:34:55;;;;;;;;;;;;;;;;;;5044784;28;19974;-74
2021/12/13 16:37:22;;;;;;;;;;;;;;;;;;5041138;28;19959;-75
2021/12/13 16:39:48;;;;;;;;;;;;;;;;;;5047398;28;19913;-75
2021/12/13 16:42:14;;;;;;;;;;;;;;;;;;5047269;28;19998;-75
2021/12/13 16:44:40;;;;;;;;;;;;;;;;;;5046757;28;19913;-74
2021/12/13 16:47:06;;;;;;;;;;;;;;;;;;5048051;28;19955;-74